Algodones, New Mexico
Current Conditions -  °F | °C
As of 1:52 AM on Saturday 01 Nov 2014 (Local Time) from KABQ Reporting Station
Overcast Overcast  
Wind Chill: 55°   Ceiling: 4200
Heat Index: 55°   Visibility: 10mi
Dew Point: 44°   Wind: 5mph
Humidity: 67%   Direction: 360°N
Pressure: 30.21"   Gusts: NA
Location:  35.38°N, 106.48°W
Report Text: KABQ 010752Z 36004KT 10SM FEW030 BKN042 OVC100 13/07 A3021 RMK AO2 SLP178 MTNS OBSC NE-SE T01280067
Loading
Personal Weather Stations






























Interactive Weather Map
Tropical Storm Tracking
New forecast layout! Learn more

10-Day Weather Forecast

Advertisements
Track Severe Weather on mobile